Sule Skerry, United Kingdom
Current Conditions -  °F | °C
As of 10:50 PM on Saturday 25 Oct 2014 (Local Time) from EGPA Reporting Station
Scattered Clouds Scattered Clouds  
Wind Chill: 50°   Ceiling: Unl
Heat Index: 50°   Visibility: 4mi
Dew Point: 45°   Wind: 24mph
Humidity: 82%   Direction: 210°SSW
Pressure: 29.32"   Gusts: NA
Location:  59.08°N, 4.4°W
Report Text: EGPA 252150Z AUTO 21021KT 7000 FEW031/// SCT047/// 10/07 Q0993
Loading
Personal Weather Stations






























Interactive Weather Map
Tropical Storm Tracking
New forecast layout! Learn more

10-Day Weather Forecast

Advertisements
Track Severe Weather on mobile